sensor_id;sensor_type;location;lat;lon;timestamp;pressure;altitude;pressure_sealevel;temperature;humidity
54870;BME280;40756;-37.950;145.008;2024-02-15T00:00:20;102031.05;;;17.34;35.97
54870;BME280;40756;-37.950;145.008;2024-02-15T00:02:50;102026.07;;;18.57;34.94
54870;BME280;40756;-37.950;145.008;2024-02-15T00:05:20;102022.17;;;19.26;35.43
54870;BME280;40756;-37.950;145.008;2024-02-15T00:07:50;102019.08;;;19.62;35.12
54870;BME280;40756;-37.950;145.008;2024-02-15T00:10:19;102022.20;;;18.81;36.01
54870;BME280;40756;-37.950;145.008;2024-02-15T00:12:49;102018.96;;;19.66;34.62
54870;BME280;40756;-37.950;145.008;2024-02-15T00:15:19;102021.04;;;18.25;35.05
54870;BME280;40756;-37.950;145.008;2024-02-15T00:17:48;102020.80;;;18.75;35.79
54870;BME280;40756;-37.950;145.008;2024-02-15T00:20:18;102024.15;;;18.55;35.43
54870;BME280;40756;-37.950;145.008;2024-02-15T00:22:47;102023.58;;;18.38;36.09
54870;BME280;40756;-37.950;145.008;2024-02-15T00:25:17;102021.55;;;18.94;35.89
54870;BME280;40756;-37.950;145.008;2024-02-15T00:27:47;102024.23;;;18.76;35.54
54870;BME280;40756;-37.950;145.008;2024-02-15T00:30:17;102016.00;;;18.59;35.57
54870;BME280;40756;-37.950;145.008;2024-02-15T00:32:46;102012.04;;;19.31;34.99
54870;BME280;40756;-37.950;145.008;2024-02-15T00:35:16;102013.85;;;18.77;35.47
54870;BME280;40756;-37.950;145.008;2024-02-15T00:37:46;102014.13;;;17.30;37.10
54870;BME280;40756;-37.950;145.008;2024-02-15T00:40:15;102010.69;;;18.97;35.22
54870;BME280;40756;-37.950;145.008;2024-02-15T00:42:45;102006.53;;;18.89;35.72
54870;BME280;40756;-37.950;145.008;2024-02-15T00:45:14;102010.63;;;19.11;35.77
54870;BME280;40756;-37.950;145.008;2024-02-15T00:47:44;102007.60;;;18.74;35.68
54870;BME280;40756;-37.950;145.008;2024-02-15T00:50:13;102013.31;;;18.62;36.61
54870;BME280;40756;-37.950;145.008;2024-02-15T00:52:43;102010.34;;;19.61;35.33
54870;BME280;40756;-37.950;145.008;2024-02-15T00:55:12;102012.11;;;18.92;35.90
54870;BME280;40756;-37.950;145.008;2024-02-15T00:57:42;102006.07;;;18.88;35.35
54870;BME280;40756;-37.950;145.008;2024-02-15T01:00:12;102005.63;;;18.73;35.91
54870;BME280;40756;-37.950;145.008;2024-02-15T01:02:42;101997.30;;;19.13;35.71
54870;BME280;40756;-37.950;145.008;2024-02-15T01:05:12;102000.62;;;19.10;35.42
54870;BME280;40756;-37.950;145.008;2024-02-15T01:07:42;101993.41;;;19.32;35.82
54870;BME280;40756;-37.950;145.008;2024-02-15T01:10:12;101993.43;;;19.09;36.46
54870;BME280;40756;-37.950;145.008;2024-02-15T01:12:41;101989.84;;;19.03;35.93
54870;BME280;40756;-37.950;145.008;2024-02-15T01:15:11;101990.67;;;19.09;35.75
54870;BME280;40756;-37.950;145.008;2024-02-15T01:17:40;101980.99;;;19.56;35.38
54870;BME280;40756;-37.950;145.008;2024-02-15T01:20:11;101982.94;;;19.89;34.98
54870;BME280;40756;-37.950;145.008;2024-02-15T01:22:40;101979.49;;;20.26;34.80
54870;BME280;40756;-37.950;145.008;2024-02-15T01:25:10;101974.26;;;19.72;33.98
54870;BME280;40756;-37.950;145.008;2024-02-15T01:27:40;101968.90;;;20.30;34.48
54870;BME280;40756;-37.950;145.008;2024-02-15T01:30:11;101968.73;;;19.31;34.80
54870;BME280;40756;-37.950;145.008;2024-02-15T01:32:41;101965.72;;;20.24;35.00
54870;BME280;40756;-37.950;145.008;2024-02-15T01:35:11;101967.97;;;20.61;34.77
54870;BME280;40756;-37.950;145.008;2024-02-15T01:37:40;101961.27;;;20.62;34.06
54870;BME280;40756;-37.950;145.008;2024-02-15T01:40:10;101966.07;;;21.20;33.14
54870;BME280;40756;-37.950;145.008;2024-02-15T01:42:40;101966.73;;;20.13;33.79
54870;BME280;40756;-37.950;145.008;2024-02-15T01:45:10;101962.33;;;20.50;34.15
54870;BME280;40756;-37.950;145.008;2024-02-15T01:47:39;101966.75;;;20.19;34.22
54870;BME280;40756;-37.950;145.008;2024-02-15T01:50:09;101966.39;;;20.48;33.74
54870;BME280;40756;-37.950;145.008;2024-02-15T01:52:40;101964.43;;;19.84;35.14
54870;BME280;40756;-37.950;145.008;2024-02-15T01:55:11;101959.63;;;19.63;35.31
54870;BME280;40756;-37.950;145.008;2024-02-15T01:57:44;101954.69;;;20.15;35.03
54870;BME280;40756;-37.950;145.008;2024-02-15T02:00:15;101958.22;;;20.37;34.85
54870;BME280;40756;-37.950;145.008;2024-02-15T02:02:47;101954.90;;;19.82;34.81
54870;BME280;40756;-37.950;145.008;2024-02-15T02:05:17;101954.01;;;20.06;34.69
54870;BME280;40756;-37.950;145.008;2024-02-15T02:07:47;101955.03;;;19.38;36.70
54870;BME280;40756;-37.950;145.008;2024-02-15T02:10:17;101952.10;;;20.84;34.45
54870;BME280;40756;-37.950;145.008;2024-02-15T02:12:46;101955.03;;;20.45;34.81
54870;BME280;40756;-37.950;145.008;2024-02-15T02:15:16;101950.50;;;20.83;35.15
54870;BME280;40756;-37.950;145.008;2024-02-15T02:17:49;101954.72;;;21.34;34.38
54870;BME280;40756;-37.950;145.008;2024-02-15T02:20:18;101948.51;;;20.29;34.82
54870;BME280;40756;-37.950;145.008;2024-02-15T02:22:53;101952.78;;;21.07;34.05
54870;BME280;40756;-37.950;145.008;2024-02-15T02:25:23;101949.90;;;21.31;33.88
54870;BME280;40756;-37.950;145.008;2024-02-15T02:27:54;101950.31;;;20.24;34.38
54870;BME280;40756;-37.950;145.008;2024-02-15T02:30:25;101945.40;;;20.67;34.55
54870;BME280;40756;-37.950;145.008;2024-02-15T02:32:54;101943.45;;;20.58;35.27
54870;BME280;40756;-37.950;145.008;2024-02-15T02:35:24;101950.39;;;20.97;34.51
54870;BME280;40756;-37.950;145.008;2024-02-15T02:37:53;101949.05;;;21.46;33.68
54870;BME280;40756;-37.950;145.008;2024-02-15T02:40:23;101945.93;;;21.53;34.78
54870;BME280;40756;-37.950;145.008;2024-02-15T02:42:54;101950.42;;;21.67;33.76
54870;BME280;40756;-37.950;145.008;2024-02-15T02:45:23;101950.24;;;21.94;33.64
54870;BME280;40756;-37.950;145.008;2024-02-15T02:47:53;101956.29;;;20.02;35.35
54870;BME280;40756;-37.950;145.008;2024-02-15T02:50:23;101951.72;;;21.54;34.32
54870;BME280;40756;-37.950;145.008;2024-02-15T02:52:53;101944.24;;;21.20;35.33
54870;BME280;40756;-37.950;145.008;2024-02-15T02:55:22;101942.68;;;21.73;34.44
54870;BME280;40756;-37.950;145.008;2024-02-15T02:57:51;101939.09;;;21.24;34.44
54870;BME280;40756;-37.950;145.008;2024-02-15T03:00:21;101939.99;;;22.51;33.19
54870;BME280;40756;-37.950;145.008;2024-02-15T03:02:50;101943.51;;;21.40;34.23
54870;BME280;40756;-37.950;145.008;2024-02-15T03:05:20;101944.97;;;21.62;33.92
54870;BME280;40756;-37.950;145.008;2024-02-15T03:07:50;101942.99;;;20.94;34.52
54870;BME280;40756;-37.950;145.008;2024-02-15T03:10:19;101947.76;;;22.05;33.96
54870;BME280;40756;-37.950;145.008;2024-02-15T03:12:49;101945.60;;;22.27;32.04
54870;BME280;40756;-37.950;145.008;2024-02-15T03:15:18;101944.09;;;20.61;34.28
54870;BME280;40756;-37.950;145.008;2024-02-15T03:17:48;101937.44;;;22.52;33.09
54870;BME280;40756;-37.950;145.008;2024-02-15T03:20:18;101953.57;;;21.56;33.58
54870;BME280;40756;-37.950;145.008;2024-02-15T03:22:52;101945.38;;;20.95;33.71
54870;BME280;40756;-37.950;145.008;2024-02-15T03:25:21;101945.64;;;21.89;34.07
54870;BME280;40756;-37.950;145.008;2024-02-15T03:27:51;101941.91;;;21.88;33.84
54870;BME280;40756;-37.950;145.008;2024-02-15T03:30:21;101942.74;;;21.87;33.78
54870;BME280;40756;-37.950;145.008;2024-02-15T03:32:52;101940.66;;;22.47;32.85
54870;BME280;40756;-37.950;145.008;2024-02-15T03:35:24;101946.65;;;21.69;33.31
54870;BME280;40756;-37.950;145.008;2024-02-15T03:37:53;101941.87;;;21.74;33.55
54870;BME280;40756;-37.950;145.008;2024-02-15T03:40:23;101938.80;;;22.72;32.84
54870;BME280;40756;-37.950;145.008;2024-02-15T03:42:53;101936.52;;;23.50;31.49
54870;BME280;40756;-37.950;145.008;2024-02-15T03:45:22;101939.49;;;22.34;32.80
54870;BME280;40756;-37.950;145.008;2024-02-15T03:47:52;101947.96;;;22.26;32.85
54870;BME280;40756;-37.950;145.008;2024-02-15T03:50:21;101936.02;;;23.18;31.75
54870;BME280;40756;-37.950;145.008;2024-02-15T03:52:51;101939.14;;;22.36;32.57
54870;BME280;40756;-37.950;145.008;2024-02-15T03:55:20;101939.95;;;22.15;32.38
54870;BME280;40756;-37.950;145.008;2024-02-15T03:57:49;101935.19;;;22.62;32.15
54870;BME280;40756;-37.950;145.008;2024-02-15T04:00:19;101929.29;;;23.32;31.59
54870;BME280;40756;-37.950;145.008;2024-02-15T04:02:48;101928.98;;;22.25;32.69
54870;BME280;40756;-37.950;145.008;2024-02-15T04:05:18;101937.57;;;21.65;33.58
54870;BME280;40756;-37.950;145.008;2024-02-15T04:07:47;101929.68;;;22.45;33.67
54870;BME280;40756;-37.950;145.008;2024-02-15T04:10:17;101929.20;;;22.47;32.65
54870;BME280;40756;-37.950;145.008;2024-02-15T04:12:47;101928.33;;;21.85;33.71
54870;BME280;40756;-37.950;145.008;2024-02-15T04:15:16;101923.27;;;22.35;33.35
54870;BME280;40756;-37.950;145.008;2024-02-15T04:17:45;101920.35;;;23.45;32.36
54870;BME280;40756;-37.950;145.008;2024-02-15T04:20:15;101917.96;;;24.17;31.74
54870;BME280;40756;-37.950;145.008;2024-02-15T04:22:44;101913.38;;;23.21;32.44
54870;BME280;40756;-37.950;145.008;2024-02-15T04:25:13;101904.24;;;23.31;32.83
54870;BME280;40756;-37.950;145.008;2024-02-15T04:27:44;101908.93;;;23.13;32.13
54870;BME280;40756;-37.950;145.008;2024-02-15T04:30:13;101906.33;;;23.50;32.06
54870;BME280;40756;-37.950;145.008;2024-02-15T04:32:43;101911.53;;;22.68;32.99
54870;BME280;40756;-37.950;145.008;2024-02-15T04:35:13;101903.54;;;23.10;32.47
54870;BME280;40756;-37.950;145.008;2024-02-15T04:37:43;101904.53;;;22.95;32.78
54870;BME280;40756;-37.950;145.008;2024-02-15T04:40:13;101903.82;;;22.45;33.72
54870;BME280;40756;-37.950;145.008;2024-02-15T04:42:43;101901.67;;;22.16;35.00
54870;BME280;40756;-37.950;145.008;2024-02-15T04:45:12;101899.35;;;22.76;33.26
54870;BME280;40756;-37.950;145.008;2024-02-15T04:47:41;101896.03;;;22.32;34.25
54870;BME280;40756;-37.950;145.008;2024-02-15T04:50:11;101902.40;;;21.47;35.44
54870;BME280;40756;-37.950;145.008;2024-02-15T04:52:40;101901.12;;;21.98;35.37
54870;BME280;40756;-37.950;145.008;2024-02-15T04:55:10;101901.65;;;21.33;35.62
54870;BME280;40756;-37.950;145.008;2024-02-15T04:57:40;101900.84;;;20.94;36.46
54870;BME280;40756;-37.950;145.008;2024-02-15T05:00:10;101893.04;;;20.83;36.26
54870;BME280;40756;-37.950;145.008;2024-02-15T05:02:40;101889.40;;;21.38;36.09
54870;BME280;40756;-37.950;145.008;2024-02-15T05:05:09;101889.97;;;20.99;36.39
54870;BME280;40756;-37.950;145.008;2024-02-15T05:07:39;101883.32;;;23.11;34.23
54870;BME280;40756;-37.950;145.008;2024-02-15T05:10:09;101884.38;;;21.73;34.86
54870;BME280;40756;-37.950;145.008;2024-02-15T05:12:39;101873.94;;;21.99;34.67
54870;BME280;40756;-37.950;145.008;2024-02-15T05:15:10;101879.04;;;21.41;34.47
54870;BME280;40756;-37.950;145.008;2024-02-15T05:17:40;101873.19;;;22.16;32.81
54870;BME280;40756;-37.950;145.008;2024-02-15T05:20:12;101878.10;;;22.77;31.99
54870;BME280;40756;-37.950;145.008;2024-02-15T05:22:42;101875.03;;;22.50;31.71
54870;BME280;40756;-37.950;145.008;2024-02-15T05:25:12;101868.45;;;22.94;31.69
54870;BME280;40756;-37.950;145.008;2024-02-15T05:27:41;101871.81;;;21.78;32.12
54870;BME280;40756;-37.950;145.008;2024-02-15T05:30:11;101868.54;;;22.88;31.78
54870;BME280;40756;-37.950;145.008;2024-02-15T05:32:41;101869.12;;;23.00;31.49
54870;BME280;40756;-37.950;145.008;2024-02-15T05:35:11;101865.33;;;22.65;31.50
54870;BME280;40756;-37.950;145.008;2024-02-15T05:37:41;101867.78;;;21.77;31.52
54870;BME280;40756;-37.950;145.008;2024-02-15T05:40:11;101871.27;;;22.76;30.65
54870;BME280;40756;-37.950;145.008;2024-02-15T05:42:41;101871.80;;;22.67;31.34
54870;BME280;40756;-37.950;145.008;2024-02-15T05:45:43;101870.81;;;22.06;31.65
54870;BME280;40756;-37.950;145.008;2024-02-15T05:48:13;101871.57;;;21.94;31.35
54870;BME280;40756;-37.950;145.008;2024-02-15T05:50:42;101871.04;;;22.80;31.12
54870;BME280;40756;-37.950;145.008;2024-02-15T05:53:11;101871.59;;;23.16;30.79
54870;BME280;40756;-37.950;145.008;2024-02-15T05:55:41;101879.90;;;20.94;32.54
54870;BME280;40756;-37.950;145.008;2024-02-15T05:58:10;101878.02;;;22.37;31.57
54870;BME280;40756;-37.950;145.008;2024-02-15T06:00:41;101877.27;;;22.20;31.63
54870;BME280;40756;-37.950;145.008;2024-02-15T06:03:10;101873.65;;;22.38;31.22
54870;BME280;40756;-37.950;145.008;2024-02-15T06:05:40;101873.02;;;21.93;31.83
54870;BME280;40756;-37.950;145.008;2024-02-15T06:08:09;101874.34;;;22.66;30.73
54870;BME280;40756;-37.950;145.008;2024-02-15T06:10:38;101870.60;;;22.58;30.90
54870;BME280;40756;-37.950;145.008;2024-02-15T06:13:08;101871.34;;;22.49;30.62
54870;BME280;40756;-37.950;145.008;2024-02-15T06:15:38;101863.64;;;22.08;31.63
54870;BME280;40756;-37.950;145.008;2024-02-15T06:18:07;101868.35;;;23.16;30.12
54870;BME280;40756;-37.950;145.008;2024-02-15T06:20:37;101874.44;;;21.63;31.92
54870;BME280;40756;-37.950;145.008;2024-02-15T06:23:07;101871.86;;;22.90;30.60
54870;BME280;40756;-37.950;145.008;2024-02-15T06:25:36;101874.65;;;23.40;30.03
54870;BME280;40756;-37.950;145.008;2024-02-15T06:28:06;101869.61;;;23.61;29.79
54870;BME280;40756;-37.950;145.008;2024-02-15T06:30:36;101873.62;;;22.22;30.57
54870;BME280;40756;-37.950;145.008;2024-02-15T06:33:05;101870.95;;;22.66;29.85
54870;BME280;40756;-37.950;145.008;2024-02-15T06:35:34;101863.77;;;22.70;30.02
54870;BME280;40756;-37.950;145.008;2024-02-15T06:38:04;101864.00;;;23.59;29.22
54870;BME280;40756;-37.950;145.008;2024-02-15T06:40:34;101867.64;;;21.87;30.46
54870;BME280;40756;-37.950;145.008;2024-02-15T06:43:03;101861.29;;;22.98;29.22
54870;BME280;40756;-37.950;145.008;2024-02-15T06:45:33;101858.79;;;22.41;30.66
54870;BME280;40756;-37.950;145.008;2024-02-15T06:48:02;101865.33;;;21.27;31.60
54870;BME280;40756;-37.950;145.008;2024-02-15T06:50:32;101865.20;;;20.94;32.48
54870;BME280;40756;-37.950;145.008;2024-02-15T06:53:01;101863.10;;;21.68;31.86
54870;BME280;40756;-37.950;145.008;2024-02-15T06:55:30;101867.24;;;20.32;33.08
54870;BME280;40756;-37.950;145.008;2024-02-15T06:58:00;101871.18;;;20.51;33.44
54870;BME280;40756;-37.950;145.008;2024-02-15T07:00:29;101877.12;;;21.30;33.29
54870;BME280;40756;-37.950;145.008;2024-02-15T07:02:59;101875.25;;;20.73;33.34
54870;BME280;40756;-37.950;145.008;2024-02-15T07:05:28;101882.80;;;19.26;35.61
54870;BME280;40756;-37.950;145.008;2024-02-15T07:07:58;101882.14;;;19.04;35.78
54870;BME280;40756;-37.950;145.008;2024-02-15T07:10:27;101890.62;;;18.99;35.68
54870;BME280;40756;-37.950;145.008;2024-02-15T07:12:57;101886.84;;;19.54;35.42
54870;BME280;40756;-37.950;145.008;2024-02-15T07:15:27;101887.47;;;19.01;36.20
54870;BME280;40756;-37.950;145.008;2024-02-15T07:17:57;101893.34;;;20.56;34.21
54870;BME280;40756;-37.950;145.008;2024-02-15T07:20:26;101881.95;;;20.25;34.92
54870;BME280;40756;-37.950;145.008;2024-02-15T07:22:56;101881.34;;;21.09;33.41
54870;BME280;40756;-37.950;145.008;2024-02-15T07:25:25;101881.29;;;20.57;35.81
54870;BME280;40756;-37.950;145.008;2024-02-15T07:27:55;101885.54;;;19.74;35.05
54870;BME280;40756;-37.950;145.008;2024-02-15T07:30:24;101883.89;;;19.29;36.70
54870;BME280;40756;-37.950;145.008;2024-02-15T07:32:53;101880.90;;;19.37;35.71
54870;BME280;40756;-37.950;145.008;2024-02-15T07:35:23;101884.43;;;20.13;35.75
54870;BME280;40756;-37.950;145.008;2024-02-15T07:37:54;101885.22;;;20.77;34.64
54870;BME280;40756;-37.950;145.008;2024-02-15T07:40:25;101888.42;;;19.79;36.48
54870;BME280;40756;-37.950;145.008;2024-02-15T07:42:56;101892.67;;;19.32;36.07
54870;BME280;40756;-37.950;145.008;2024-02-15T07:45:25;101891.60;;;20.31;35.34
54870;BME280;40756;-37.950;145.008;2024-02-15T07:47:55;101890.72;;;19.48;35.91
54870;BME280;40756;-37.950;145.008;2024-02-15T07:50:24;101893.59;;;20.33;35.68
54870;BME280;40756;-37.950;145.008;2024-02-15T07:52:54;101893.04;;;20.40;35.80
54870;BME280;40756;-37.950;145.008;2024-02-15T07:55:23;101894.85;;;19.88;35.78
54870;BME280;40756;-37.950;145.008;2024-02-15T07:57:53;101899.41;;;19.08;35.86
54870;BME280;40756;-37.950;145.008;2024-02-15T08:00:23;101898.48;;;20.03;35.29
54870;BME280;40756;-37.950;145.008;2024-02-15T08:02:52;101900.13;;;19.06;36.13
54870;BME280;40756;-37.950;145.008;2024-02-15T08:05:22;101900.90;;;19.81;36.19
54870;BME280;40756;-37.950;145.008;2024-02-15T08:07:51;101906.25;;;19.31;36.70
54870;BME280;40756;-37.950;145.008;2024-02-15T08:10:21;101906.52;;;17.90;38.06
54870;BME280;40756;-37.950;145.008;2024-02-15T08:12:51;101906.22;;;19.11;36.66
54870;BME280;40756;-37.950;145.008;2024-02-15T08:15:21;101909.90;;;19.04;36.80
54870;BME280;40756;-37.950;145.008;2024-02-15T08:17:51;101913.21;;;17.55;38.66
54870;BME280;40756;-37.950;145.008;2024-02-15T08:20:20;101910.09;;;18.18;37.49
54870;BME280;40756;-37.950;145.008;2024-02-15T08:22:50;101909.73;;;18.28;37.70
54870;BME280;40756;-37.950;145.008;2024-02-15T08:25:20;101915.27;;;18.38;37.89
54870;BME280;40756;-37.950;145.008;2024-02-15T08:27:49;101920.29;;;18.87;37.48
54870;BME280;40756;-37.950;145.008;2024-02-15T08:30:19;101921.51;;;17.70;38.60
54870;BME280;40756;-37.950;145.008;2024-02-15T08:32:48;101924.73;;;18.47;37.63
54870;BME280;40756;-37.950;145.008;2024-02-15T08:35:18;101928.03;;;18.44;38.37
54870;BME280;40756;-37.950;145.008;2024-02-15T08:37:47;101933.45;;;18.57;37.99
54870;BME280;40756;-37.950;145.008;2024-02-15T08:40:17;101944.54;;;17.82;38.21
54870;BME280;40756;-37.950;145.008;2024-02-15T08:42:47;101944.86;;;17.95;38.67
54870;BME280;40756;-37.950;145.008;2024-02-15T08:45:17;101941.74;;;19.03;37.43
54870;BME280;40756;-37.950;145.008;2024-02-15T08:47:47;101942.48;;;18.82;37.54
54870;BME280;40756;-37.950;145.008;2024-02-15T08:50:16;101947.44;;;18.40;37.65
54870;BME280;40756;-37.950;145.008;2024-02-15T08:52:46;101956.37;;;17.98;38.10
54870;BME280;40756;-37.950;145.008;2024-02-15T08:55:15;101958.51;;;19.14;36.81
54870;BME280;40756;-37.950;145.008;2024-02-15T08:57:45;101953.39;;;17.99;38.67
54870;BME280;40756;-37.950;145.008;2024-02-15T09:00:16;101958.36;;;17.94;38.69
54870;BME280;40756;-37.950;145.008;2024-02-15T09:02:45;101961.86;;;17.75;39.21
54870;BME280;40756;-37.950;145.008;2024-02-15T09:05:16;101964.69;;;17.25;39.86
54870;BME280;40756;-37.950;145.008;2024-02-15T09:07:46;101960.71;;;18.11;38.77
54870;BME280;40756;-37.950;145.008;2024-02-15T09:10:16;101959.14;;;18.82;37.86
54870;BME280;40756;-37.950;145.008;2024-02-15T09:12:47;101965.44;;;18.57;37.92
54870;BME280;40756;-37.950;145.008;2024-02-15T09:15:17;101968.11;;;18.41;38.11
54870;BME280;40756;-37.950;145.008;2024-02-15T09:17:46;101968.68;;;18.08;38.58
54870;BME280;40756;-37.950;145.008;2024-02-15T09:20:18;101967.18;;;18.86;37.84
54870;BME280;40756;-37.950;145.008;2024-02-15T09:22:49;101964.56;;;19.18;37.58
54870;BME280;40756;-37.950;145.008;2024-02-15T09:25:20;101964.07;;;18.28;38.15
54870;BME280;40756;-37.950;145.008;2024-02-15T09:27:50;101966.48;;;18.49;37.75
54870;BME280;40756;-37.950;145.008;2024-02-15T09:30:19;101972.87;;;17.83;39.23
54870;BME280;40756;-37.950;145.008;2024-02-15T09:32:49;101970.90;;;18.83;37.45
54870;BME280;40756;-37.950;145.008;2024-02-15T09:35:18;101970.76;;;19.34;37.03
54870;BME280;40756;-37.950;145.008;2024-02-15T09:37:49;101975.80;;;17.80;38.70
54870;BME280;40756;-37.950;145.008;2024-02-15T09:40:19;101979.24;;;18.30;37.78
54870;BME280;40756;-37.950;145.008;2024-02-15T09:42:49;101979.60;;;17.81;38.72
54870;BME280;40756;-37.950;145.008;2024-02-15T09:45:20;101977.32;;;17.60;39.10
54870;BME280;40756;-37.950;145.008;2024-02-15T09:47:50;101984.26;;;17.77;38.87
54870;BME280;40756;-37.950;145.008;2024-02-15T09:50:20;101983.07;;;18.55;38.28
54870;BME280;40756;-37.950;145.008;2024-02-15T09:52:52;101978.47;;;18.59;38.71
54870;BME280;40756;-37.950;145.008;2024-02-15T09:55:23;101967.46;;;18.68;38.14
54870;BME280;40756;-37.950;145.008;2024-02-15T09:57:54;101974.39;;;16.99;40.64
54870;BME280;40756;-37.950;145.008;2024-02-15T10:00:24;101980.90;;;17.12;41.44
54870;BME280;40756;-37.950;145.008;2024-02-15T10:02:54;101989.53;;;18.27;39.57
54870;BME280;40756;-37.950;145.008;2024-02-15T10:05:23;101987.56;;;18.25;39.82
54870;BME280;40756;-37.950;145.008;2024-02-15T10:07:52;101985.76;;;16.77;41.87
54870;BME280;40756;-37.950;145.008;2024-02-15T10:10:23;101988.23;;;16.85;42.38
54870;BME280;40756;-37.950;145.008;2024-02-15T10:12:54;101992.29;;;17.40;40.97
54870;BME280;40756;-37.950;145.008;2024-02-15T10:15:33;101999.24;;;16.95;41.32
54870;BME280;40756;-37.950;145.008;2024-02-15T10:18:03;101997.22;;;17.98;40.45
54870;BME280;40756;-37.950;145.008;2024-02-15T10:20:34;101990.61;;;16.85;41.93
54870;BME280;40756;-37.950;145.008;2024-02-15T10:23:12;101997.45;;;17.75;40.90
54870;BME280;40756;-37.950;145.008;2024-02-15T10:25:42;102011.06;;;17.86;40.38
54870;BME280;40756;-37.950;145.008;2024-02-15T10:28:11;102007.61;;;16.13;42.93
54870;BME280;40756;-37.950;145.008;2024-02-15T10:30:43;101999.72;;;16.51;42.68
54870;BME280;40756;-37.950;145.008;2024-02-15T10:33:20;102011.70;;;17.62;41.12
54870;BME280;40756;-37.950;145.008;2024-02-15T10:36:06;102028.63;;;17.36;41.60
54870;BME280;40756;-37.950;145.008;2024-02-15T10:38:36;102030.69;;;16.90;41.88
54870;BME280;40756;-37.950;145.008;2024-02-15T10:41:07;102031.51;;;17.63;41.38
54870;BME280;40756;-37.950;145.008;2024-02-15T10:43:37;102039.99;;;16.17;42.91
54870;BME280;40756;-37.950;145.008;2024-02-15T10:46:09;102040.10;;;17.04;42.42
54870;BME280;40756;-37.950;145.008;2024-02-15T10:48:39;102036.44;;;17.82;41.25
54870;BME280;40756;-37.950;145.008;2024-02-15T10:51:11;102038.77;;;16.11;44.13
54870;BME280;40756;-37.950;145.008;2024-02-15T10:53:51;102044.18;;;16.98;42.79
54870;BME280;40756;-37.950;145.008;2024-02-15T10:56:28;102050.21;;;16.87;42.83
54870;BME280;40756;-37.950;145.008;2024-02-15T10:59:13;102060.25;;;17.56;42.09
54870;BME280;40756;-37.950;145.008;2024-02-15T11:01:46;102073.57;;;17.38;42.28
54870;BME280;40756;-37.950;145.008;2024-02-15T11:04:21;102078.66;;;17.66;41.85
54870;BME280;40756;-37.950;145.008;2024-02-15T11:06:52;102078.96;;;16.95;43.03
54870;BME280;40756;-37.950;145.008;2024-02-15T11:09:24;102080.60;;;17.37;43.08
54870;BME280;40756;-37.950;145.008;2024-02-15T11:11:54;102077.13;;;17.22;42.69
54870;BME280;40756;-37.950;145.008;2024-02-15T11:14:28;102068.60;;;18.02;42.07
54870;BME280;40756;-37.950;145.008;2024-02-15T11:16:59;102067.26;;;16.97;43.38
54870;BME280;40756;-37.950;145.008;2024-02-15T11:19:45;102069.70;;;17.09;43.37
54870;BME280;40756;-37.950;145.008;2024-02-15T11:22:16;102072.44;;;15.99;45.62
54870;BME280;40756;-37.950;145.008;2024-02-15T11:24:49;102078.73;;;17.27;43.75
54870;BME280;40756;-37.950;145.008;2024-02-15T11:27:27;102087.03;;;17.30;43.73
54870;BME280;40756;-37.950;145.008;2024-02-15T11:29:58;102084.84;;;18.13;42.35
54870;BME280;40756;-37.950;145.008;2024-02-15T11:32:45;102076.76;;;18.00;41.89
54870;BME280;40756;-37.950;145.008;2024-02-15T11:35:15;102083.12;;;18.32;41.85
54870;BME280;40756;-37.950;145.008;2024-02-15T11:38:00;102092.09;;;17.67;42.21
54870;BME280;40756;-37.950;145.008;2024-02-15T11:40:59;102088.86;;;17.64;42.44
54870;BME280;40756;-37.950;145.008;2024-02-15T11:43:49;102083.72;;;17.86;41.75
54870;BME280;40756;-37.950;145.008;2024-02-15T11:46:19;102079.56;;;16.47;43.69
54870;BME280;40756;-37.950;145.008;2024-02-15T11:48:49;102077.83;;;17.77;42.61
54870;BME280;40756;-37.950;145.008;2024-02-15T11:51:35;102070.67;;;16.80;43.91
54870;BME280;40756;-37.950;145.008;2024-02-15T11:54:07;102077.34;;;16.78;44.26
54870;BME280;40756;-37.950;145.008;2024-02-15T11:56:53;102079.15;;;17.48;43.20
54870;BME280;40756;-37.950;145.008;2024-02-15T11:59:22;102079.89;;;17.34;42.95
54870;BME280;40756;-37.950;145.008;2024-02-15T12:01:53;102070.18;;;17.27;43.24
54870;BME280;40756;-37.950;145.008;2024-02-15T12:04:23;102063.73;;;17.13;43.18
54870;BME280;40756;-37.950;145.008;2024-02-15T12:06:57;102074.12;;;17.35;42.88
54870;BME280;40756;-37.950;145.008;2024-02-15T12:09:27;102072.23;;;16.97;43.20
54870;BME280;40756;-37.950;145.008;2024-02-15T12:11:59;102075.30;;;17.97;42.04
54870;BME280;40756;-37.950;145.008;2024-02-15T12:14:29;102078.81;;;17.90;41.80
54870;BME280;40756;-37.950;145.008;2024-02-15T12:17:12;102078.07;;;17.28;42.35
54870;BME280;40756;-37.950;145.008;2024-02-15T12:19:42;102078.35;;;17.48;42.43
54870;BME280;40756;-37.950;145.008;2024-02-15T12:22:12;102071.48;;;16.62;43.52
54870;BME280;40756;-37.950;145.008;2024-02-15T12:24:42;102071.18;;;16.52;44.22
54870;BME280;40756;-37.950;145.008;2024-02-15T12:27:11;102065.61;;;16.69;44.10
54870;BME280;40756;-37.950;145.008;2024-02-15T12:29:42;102058.74;;;16.98;43.78
54870;BME280;40756;-37.950;145.008;2024-02-15T12:32:11;102064.16;;;17.32;43.09
54870;BME280;40756;-37.950;145.008;2024-02-15T12:34:49;102060.90;;;16.80;43.98
54870;BME280;40756;-37.950;145.008;2024-02-15T12:37:20;102062.49;;;16.54;44.53